VCP115 TTCP-TFFR
Flight info
| Callsign | VCP115 |
|---|---|
| Flight time | N/A |
| Altitude | 5000 |
| Route | TABEX DCT BNE DCT FOF DCT DOM/N0165F060 DCT PPR |
| Aircraft | PA24/L-SDGRY/S |
Departure
| Time | 2026-04-17 17:50 |
|---|---|
| Airport | A.N.R. Robinson International Airport (TTCP) |
Arrival
| Time | N/A |
|---|---|
| Airport | Maryse Condé International Airport (TFFR) |
| Time | Latitude | Longitude | Altitude | Speed | Heading |
|---|---|---|---|---|---|
| 2026-04-17 17:34 | 11.15187 | -60.83850 | 30 ft | 0 kts | 5° |
| 2026-04-17 17:48 | 11.15189 | -60.83849 | 30 ft | 2 kts | 358° |
| 2026-04-17 17:48 | 11.15184 | -60.83866 | 30 ft | 6 kts | 165° |
| 2026-04-17 17:48 | 11.15134 | -60.83854 | 29 ft | 9 kts | 172° |
| 2026-04-17 17:48 | 11.15094 | -60.83850 | 28 ft | 5 kts | 170° |
| 2026-04-17 17:49 | 11.15052 | -60.83821 | 28 ft | 8 kts | 140° |
| 2026-04-17 17:49 | 11.15012 | -60.83787 | 28 ft | 7 kts | 127° |
| 2026-04-17 17:49 | 11.15006 | -60.83768 | 28 ft | 0 kts | 92° |
| 2026-04-17 17:49 | 11.14989 | -60.83523 | 30 ft | 64 kts | 95° |
| 2026-04-17 17:50 | 11.14960 | -60.83034 | 209 ft | 72 kts | 97° |
| 2026-04-17 17:50 | 11.15074 | -60.82502 | 404 ft | 82 kts | 59° |
| 2026-04-17 17:50 | 11.15607 | -60.82219 | 558 ft | 92 kts | 15° |
| 2026-04-17 17:50 | 11.16230 | -60.82184 | 836 ft | 95 kts | 0° |
| 2026-04-17 17:51 | 11.16860 | -60.82430 | 1049 ft | 97 kts | 327° |
| 2026-04-17 17:51 | 11.17421 | -60.82814 | 1312 ft | 101 kts | 337° |
| 2026-04-17 17:51 | 11.18065 | -60.83088 | 1590 ft | 98 kts | 353° |
| 2026-04-17 17:51 | 11.18739 | -60.83177 | 1845 ft | 101 kts | 8° |
| 2026-04-17 17:52 | 11.19420 | -60.83080 | 2137 ft | 95 kts | 24° |
| 2026-04-17 17:52 | 11.20009 | -60.82784 | 2363 ft | 96 kts | 47° |
| 2026-04-17 17:52 | 11.20443 | -60.82316 | 2662 ft | 84 kts | 54° |
| 2026-04-17 17:52 | 11.20836 | -60.81847 | 2847 ft | 91 kts | 57° |
| 2026-04-17 17:53 | 11.21178 | -60.81327 | 3127 ft | 86 kts | 64° |
| 2026-04-17 17:53 | 11.21449 | -60.80761 | 3362 ft | 91 kts | 69° |
| 2026-04-17 17:53 | 11.21682 | -60.80176 | 3621 ft | 88 kts | 71° |
| 2026-04-17 17:53 | 11.21917 | -60.79594 | 3868 ft | 90 kts | 69° |
| 2026-04-17 17:54 | 11.22196 | -60.79024 | 4125 ft | 91 kts | 64° |
| 2026-04-17 17:54 | 11.22545 | -60.78479 | 4364 ft | 93 kts | 58° |
| 2026-04-17 17:54 | 11.22968 | -60.77979 | 4611 ft | 93 kts | 51° |
| 2026-04-17 17:54 | 11.23449 | -60.77525 | 4841 ft | 95 kts | 45° |
| 2026-04-17 17:55 | 11.23990 | -60.77131 | 5073 ft | 97 kts | 39° |
| 2026-04-17 17:55 | 11.24579 | -60.76784 | 5308 ft | 98 kts | 35° |
| 2026-04-17 17:55 | 11.25192 | -60.76459 | 5550 ft | 100 kts | 33° |
| 2026-04-17 17:55 | 11.25826 | -60.76150 | 5778 ft | 102 kts | 32° |
| 2026-04-17 17:56 | 11.26477 | -60.75828 | 5915 ft | 112 kts | 33° |
| 2026-04-17 17:56 | 11.27177 | -60.75436 | 6067 ft | 117 kts | 36° |
| 2026-04-17 17:56 | 11.27906 | -60.74986 | 6160 ft | 124 kts | 38° |
| 2026-04-17 17:56 | 11.28659 | -60.74481 | 6155 ft | 137 kts | 40° |
| 2026-04-17 17:57 | 11.29435 | -60.73925 | 6310 ft | 131 kts | 42° |
| 2026-04-17 17:57 | 11.30148 | -60.73378 | 6441 ft | 133 kts | 43° |
| 2026-04-17 17:57 | 11.30901 | -60.72785 | 6492 ft | 136 kts | 41° |
| 2026-04-17 17:57 | 11.31653 | -60.72235 | 6653 ft | 133 kts | 40° |
| 2026-04-17 17:58 | 11.32476 | -60.71651 | 6357 ft | 159 kts | 40° |
| 2026-04-17 17:58 | 11.33384 | -60.71024 | 6289 ft | 160 kts | 39° |
| 2026-04-17 17:58 | 11.34314 | -60.70355 | 6095 ft | 164 kts | 39° |
| 2026-04-17 17:58 | 11.35228 | -60.69689 | 5896 ft | 165 kts | 40° |
| 2026-04-17 17:59 | 11.36092 | -60.69018 | 5958 ft | 151 kts | 41° |
| 2026-04-17 17:59 | 11.36936 | -60.68396 | 5969 ft | 148 kts | 39° |
| 2026-04-17 17:59 | 11.37789 | -60.67825 | 5975 ft | 146 kts | 39° |
| 2026-04-17 17:59 | 11.38620 | -60.67237 | 5977 ft | 145 kts | 40° |
| 2026-04-17 18:00 | 11.39440 | -60.66658 | 5980 ft | 142 kts | 40° |
| 2026-04-17 18:00 | 11.39982 | -60.66278 | 5981 ft | 143 kts | 40° |
| 2026-04-17 18:00 | 11.41091 | -60.65515 | 5982 ft | 144 kts | 39° |
| 2026-04-17 18:00 | 11.41895 | -60.64930 | 5983 ft | 145 kts | 43° |
| 2026-04-17 18:01 | 11.42706 | -60.64342 | 5982 ft | 142 kts | 42° |
| 2026-04-17 18:01 | 11.43505 | -60.63731 | 5975 ft | 144 kts | 41° |
| 2026-04-17 18:01 | 11.44326 | -60.63136 | 5974 ft | 145 kts | 41° |
| 2026-04-17 18:01 | 11.45136 | -60.62530 | 5975 ft | 145 kts | 40° |
| 2026-04-17 18:02 | 11.45677 | -60.62133 | 5972 ft | 144 kts | 40° |
| 2026-04-17 18:02 | 11.46486 | -60.61537 | 5971 ft | 144 kts | 41° |
| 2026-04-17 18:02 | 11.47288 | -60.60927 | 5972 ft | 146 kts | 42° |
| 2026-04-17 18:02 | 11.48094 | -60.60304 | 5971 ft | 144 kts | 41° |
| 2026-04-17 18:03 | 11.48917 | -60.59716 | 5974 ft | 144 kts | 38° |
| 2026-04-17 18:03 | 11.49768 | -60.59160 | 5974 ft | 146 kts | 38° |
| 2026-04-17 18:03 | 11.50615 | -60.58585 | 5975 ft | 146 kts | 39° |
| 2026-04-17 18:03 | 11.51453 | -60.57989 | 5975 ft | 146 kts | 39° |
| 2026-04-17 18:04 | 11.52271 | -60.57401 | 5972 ft | 146 kts | 41° |
| 2026-04-17 18:04 | 11.53097 | -60.56798 | 5972 ft | 146 kts | 40° |
| 2026-04-17 18:04 | 11.53927 | -60.56208 | 5972 ft | 146 kts | 39° |
| 2026-04-17 18:04 | 11.54767 | -60.55615 | 5972 ft | 148 kts | 39° |
| 2026-04-17 18:05 | 11.55616 | -60.55017 | 5971 ft | 149 kts | 39° |
| 2026-04-17 18:05 | 11.56459 | -60.54402 | 5970 ft | 149 kts | 41° |
| 2026-04-17 18:05 | 11.57300 | -60.53782 | 5970 ft | 150 kts | 39° |
| 2026-04-17 18:05 | 11.58198 | -60.53232 | 5971 ft | 151 kts | 31° |
| 2026-04-17 18:06 | 11.59188 | -60.52842 | 5970 ft | 154 kts | 21° |
| 2026-04-17 18:06 | 11.60243 | -60.52620 | 5969 ft | 155 kts | 13° |
| 2026-04-17 18:06 | 11.61322 | -60.52528 | 5969 ft | 156 kts | 6° |
| 2026-04-17 18:06 | 11.62402 | -60.52578 | 5969 ft | 158 kts | 358° |
| 2026-04-17 18:07 | 11.63493 | -60.52779 | 5969 ft | 160 kts | 350° |
| 2026-04-17 18:07 | 11.64564 | -60.53125 | 5970 ft | 163 kts | 343° |
| 2026-04-17 18:07 | 11.65587 | -60.53637 | 5969 ft | 164 kts | 334° |
| 2026-04-17 18:07 | 11.66536 | -60.54281 | 5969 ft | 164 kts | 326° |
| 2026-04-17 18:08 | 11.67444 | -60.55004 | 5965 ft | 165 kts | 325° |
| 2026-04-17 18:08 | 11.68374 | -60.55690 | 5964 ft | 165 kts | 329° |
| 2026-04-17 18:08 | 11.69363 | -60.56275 | 5965 ft | 164 kts | 336° |
| 2026-04-17 18:08 | 11.70418 | -60.56738 | 5964 ft | 163 kts | 344° |
| 2026-04-17 18:09 | 11.71508 | -60.57074 | 5964 ft | 164 kts | 350° |
| 2026-04-17 18:09 | 11.72609 | -60.57298 | 5963 ft | 161 kts | 355° |
| 2026-04-17 18:09 | 11.73736 | -60.57440 | 5963 ft | 160 kts | 358° |
| 2026-04-17 18:09 | 11.74831 | -60.57550 | 5963 ft | 160 kts | 359° |
| 2026-04-17 18:10 | 11.75940 | -60.57644 | 5963 ft | 160 kts | 359° |
| 2026-04-17 18:10 | 11.77049 | -60.57743 | 5963 ft | 160 kts | 359° |
| 2026-04-17 18:10 | 11.78152 | -60.57884 | 5963 ft | 159 kts | 357° |
| 2026-04-17 18:10 | 11.79243 | -60.58066 | 5963 ft | 158 kts | 354° |
| 2026-04-17 18:11 | 11.80331 | -60.58258 | 5961 ft | 160 kts | 353° |
| 2026-04-17 18:11 | 11.81416 | -60.58485 | 5956 ft | 157 kts | 352° |
| 2026-04-17 18:11 | 11.82492 | -60.58719 | 5958 ft | 159 kts | 352° |
| 2026-04-17 18:11 | 11.83569 | -60.58956 | 5958 ft | 158 kts | 352° |
| 2026-04-17 18:12 | 11.84644 | -60.59199 | 5961 ft | 158 kts | 350° |
| 2026-04-17 18:12 | 11.85720 | -60.59443 | 5961 ft | 158 kts | 351° |
| 2026-04-17 18:12 | 11.86803 | -60.59685 | 5961 ft | 159 kts | 352° |
| 2026-04-17 18:12 | 11.87885 | -60.59926 | 5961 ft | 160 kts | 351° |
| 2026-04-17 18:13 | 11.88977 | -60.60164 | 5958 ft | 160 kts | 353° |
| 2026-04-17 18:13 | 11.90070 | -60.60367 | 5958 ft | 159 kts | 353° |
| 2026-04-17 18:13 | 11.91146 | -60.60553 | 5958 ft | 159 kts | 354° |
| 2026-04-17 18:13 | 11.92247 | -60.60756 | 5958 ft | 158 kts | 353° |
| 2026-04-17 18:14 | 11.93332 | -60.60981 | 5958 ft | 160 kts | 352° |
| 2026-04-17 18:14 | 11.94406 | -60.61202 | 5958 ft | 159 kts | 353° |
| 2026-04-17 18:14 | 11.95492 | -60.61422 | 5958 ft | 159 kts | 352° |
| 2026-04-17 18:14 | 11.96570 | -60.61639 | 5958 ft | 157 kts | 352° |
| 2026-04-17 18:15 | 11.97648 | -60.61876 | 5961 ft | 159 kts | 351° |
| 2026-04-17 18:15 | 11.98724 | -60.62127 | 5961 ft | 159 kts | 352° |
| 2026-04-17 18:15 | 11.99804 | -60.62355 | 5961 ft | 158 kts | 353° |
| 2026-04-17 18:15 | 12.00888 | -60.62553 | 5961 ft | 159 kts | 354° |
| 2026-04-17 18:16 | 12.01974 | -60.62745 | 5960 ft | 158 kts | 353° |
| 2026-04-17 18:16 | 12.03053 | -60.62965 | 5958 ft | 159 kts | 352° |
| 2026-04-17 18:16 | 12.04138 | -60.63162 | 5958 ft | 159 kts | 354° |
| 2026-04-17 18:16 | 12.05229 | -60.63384 | 5959 ft | 159 kts | 353° |
| 2026-04-17 18:17 | 12.06308 | -60.63615 | 5959 ft | 159 kts | 352° |
| 2026-04-17 18:17 | 12.08474 | -60.64061 | 5961 ft | 159 kts | 351° |
| 2026-04-17 18:17 | 12.09556 | -60.64305 | 5961 ft | 160 kts | 351° |
| 2026-04-17 18:18 | 12.10625 | -60.64543 | 5960 ft | 160 kts | 352° |
| 2026-04-17 18:18 | 12.11728 | -60.64771 | 5961 ft | 159 kts | 352° |
| 2026-04-17 18:18 | 12.12797 | -60.64984 | 5960 ft | 158 kts | 353° |
| 2026-04-17 18:18 | 12.13875 | -60.65180 | 5959 ft | 156 kts | 353° |
| 2026-04-17 18:19 | 12.14939 | -60.65385 | 5958 ft | 155 kts | 353° |
| 2026-04-17 18:19 | 12.16000 | -60.65590 | 5958 ft | 155 kts | 353° |
| 2026-04-17 18:19 | 12.17064 | -60.65800 | 5958 ft | 155 kts | 352° |
| 2026-04-17 18:19 | 12.18121 | -60.66018 | 5958 ft | 155 kts | 352° |
| 2026-04-17 18:20 | 12.19185 | -60.66219 | 5960 ft | 156 kts | 352° |
| 2026-04-17 18:20 | 12.20249 | -60.66437 | 5962 ft | 156 kts | 352° |
| 2026-04-17 18:20 | 12.21316 | -60.66648 | 5961 ft | 156 kts | 354° |
| 2026-04-17 18:20 | 12.22382 | -60.66859 | 5961 ft | 156 kts | 352° |
| 2026-04-17 18:21 | 12.23444 | -60.67096 | 5965 ft | 156 kts | 351° |
| 2026-04-17 18:21 | 12.24510 | -60.67332 | 5964 ft | 157 kts | 352° |
| 2026-04-17 18:21 | 12.25579 | -60.67562 | 5964 ft | 157 kts | 351° |
| 2026-04-17 18:21 | 12.26650 | -60.67794 | 5964 ft | 158 kts | 352° |
| 2026-04-17 18:22 | 12.27717 | -60.68013 | 5963 ft | 157 kts | 353° |
| 2026-04-17 18:22 | 12.28790 | -60.68213 | 5964 ft | 157 kts | 352° |
| 2026-04-17 18:22 | 12.29862 | -60.68421 | 5963 ft | 157 kts | 352° |
| 2026-04-17 18:22 | 12.30938 | -60.68632 | 5963 ft | 157 kts | 353° |
| 2026-04-17 18:23 | 12.32016 | -60.68839 | 5961 ft | 157 kts | 353° |
| 2026-04-17 18:23 | 12.33091 | -60.69050 | 5961 ft | 157 kts | 353° |
| 2026-04-17 18:23 | 12.34166 | -60.69259 | 5961 ft | 157 kts | 352° |
| 2026-04-17 18:23 | 12.35238 | -60.69471 | 5960 ft | 156 kts | 352° |
| 2026-04-17 18:24 | 12.36308 | -60.69690 | 5962 ft | 157 kts | 351° |
| 2026-04-17 18:24 | 12.37377 | -60.69912 | 5961 ft | 157 kts | 352° |
| 2026-04-17 18:24 | 12.38447 | -60.70147 | 5960 ft | 157 kts | 352° |
| 2026-04-17 18:24 | 12.39508 | -60.70387 | 5961 ft | 156 kts | 350° |
| 2026-04-17 18:25 | 12.40554 | -60.70616 | 5961 ft | 156 kts | 352° |
| 2026-04-17 18:25 | 12.41617 | -60.70822 | 5961 ft | 156 kts | 353° |
| 2026-04-17 18:25 | 12.42688 | -60.71011 | 5961 ft | 155 kts | 354° |
| 2026-04-17 18:25 | 12.43753 | -60.71221 | 5960 ft | 157 kts | 353° |
| 2026-04-17 18:26 | 12.44821 | -60.71433 | 5959 ft | 156 kts | 352° |
| 2026-04-17 18:26 | 12.45884 | -60.71655 | 5959 ft | 156 kts | 351° |
| 2026-04-17 18:26 | 12.46954 | -60.71881 | 5963 ft | 158 kts | 351° |
| 2026-04-17 18:26 | 12.48029 | -60.72113 | 5964 ft | 158 kts | 352° |
| 2026-04-17 18:27 | 12.49101 | -60.72345 | 5964 ft | 158 kts | 353° |
| 2026-04-17 18:27 | 12.50177 | -60.72561 | 5964 ft | 157 kts | 352° |
| 2026-04-17 18:27 | 12.51254 | -60.72781 | 5964 ft | 158 kts | 353° |
| 2026-04-17 18:27 | 12.52322 | -60.72979 | 5964 ft | 158 kts | 353° |
| 2026-04-17 18:28 | 12.53404 | -60.73193 | 5964 ft | 158 kts | 351° |
| 2026-04-17 18:28 | 12.54480 | -60.73429 | 5964 ft | 158 kts | 353° |
| 2026-04-17 18:28 | 12.55564 | -60.73627 | 5963 ft | 158 kts | 354° |
| 2026-04-17 18:28 | 12.56645 | -60.73819 | 5963 ft | 157 kts | 353° |
| 2026-04-17 18:29 | 12.57725 | -60.74022 | 5964 ft | 158 kts | 353° |
| 2026-04-17 18:29 | 12.58793 | -60.74269 | 5964 ft | 158 kts | 349° |
| 2026-04-17 18:29 | 12.59862 | -60.74542 | 5963 ft | 158 kts | 351° |
| 2026-04-17 18:29 | 12.60939 | -60.74771 | 5963 ft | 157 kts | 353° |
| 2026-04-17 18:30 | 12.62000 | -60.74979 | 5964 ft | 157 kts | 352° |
| 2026-04-17 18:30 | 12.63075 | -60.75178 | 5963 ft | 157 kts | 353° |
| 2026-04-17 18:30 | 12.64145 | -60.75393 | 5964 ft | 157 kts | 352° |
| 2026-04-17 18:30 | 12.65224 | -60.75598 | 5964 ft | 157 kts | 353° |
| 2026-04-17 18:31 | 12.66303 | -60.75808 | 5961 ft | 157 kts | 353° |
| 2026-04-17 18:31 | 12.67379 | -60.76008 | 5961 ft | 157 kts | 353° |
| 2026-04-17 18:31 | 12.68455 | -60.76207 | 5960 ft | 158 kts | 352° |
| 2026-04-17 18:31 | 12.69533 | -60.76420 | 5961 ft | 157 kts | 352° |
| 2026-04-17 18:32 | 12.70599 | -60.76662 | 5961 ft | 158 kts | 351° |
| 2026-04-17 18:32 | 12.71671 | -60.76902 | 5961 ft | 157 kts | 351° |
| 2026-04-17 18:32 | 12.72743 | -60.77123 | 5964 ft | 157 kts | 352° |
| 2026-04-17 18:32 | 12.73821 | -60.77342 | 5963 ft | 157 kts | 352° |
| 2026-04-17 18:33 | 12.74891 | -60.77551 | 5963 ft | 157 kts | 353° |
| 2026-04-17 18:33 | 12.75952 | -60.77768 | 5964 ft | 157 kts | 352° |
| 2026-04-17 18:33 | 12.77021 | -60.77993 | 5964 ft | 156 kts | 352° |
| 2026-04-17 18:33 | 12.78088 | -60.78206 | 5963 ft | 156 kts | 352° |
| 2026-04-17 18:34 | 12.79154 | -60.78419 | 5964 ft | 156 kts | 352° |
| 2026-04-17 18:34 | 12.80219 | -60.78643 | 5964 ft | 157 kts | 351° |
| 2026-04-17 18:34 | 12.81285 | -60.78878 | 5964 ft | 157 kts | 351° |
| 2026-04-17 18:34 | 12.82355 | -60.79121 | 5963 ft | 157 kts | 352° |
| 2026-04-17 18:35 | 12.83425 | -60.79340 | 5964 ft | 157 kts | 352° |
| 2026-04-17 18:35 | 12.84501 | -60.79552 | 5964 ft | 157 kts | 352° |
| 2026-04-17 18:35 | 12.85572 | -60.79764 | 5963 ft | 157 kts | 352° |
| 2026-04-17 18:35 | 12.86648 | -60.79971 | 5964 ft | 158 kts | 353° |
| 2026-04-17 18:36 | 12.87716 | -60.80188 | 5968 ft | 158 kts | 353° |
| 2026-04-17 18:36 | 12.88796 | -60.80392 | 5967 ft | 159 kts | 353° |
| 2026-04-17 18:36 | 12.89878 | -60.80617 | 5966 ft | 158 kts | 352° |
| 2026-04-17 18:36 | 12.90954 | -60.80844 | 5966 ft | 159 kts | 352° |
| 2026-04-17 18:37 | 12.92032 | -60.81070 | 5963 ft | 158 kts | 352° |
| 2026-04-17 18:37 | 12.93112 | -60.81299 | 5964 ft | 158 kts | 353° |
| 2026-04-17 18:37 | 12.94192 | -60.81511 | 5963 ft | 158 kts | 352° |
| 2026-04-17 18:37 | 12.95272 | -60.81694 | 5963 ft | 156 kts | 353° |
| 2026-04-17 18:38 | 12.96345 | -60.81894 | 5963 ft | 158 kts | 352° |
| 2026-04-17 18:38 | 12.97417 | -60.82118 | 5964 ft | 157 kts | 351° |
| 2026-04-17 18:38 | 12.98482 | -60.82373 | 5963 ft | 157 kts | 351° |
| 2026-04-17 18:38 | 12.99536 | -60.82611 | 5964 ft | 158 kts | 351° |
| 2026-04-17 18:39 | 13.00604 | -60.82844 | 5964 ft | 156 kts | 352° |
| 2026-04-17 18:39 | 13.01671 | -60.83053 | 5964 ft | 157 kts | 352° |
| 2026-04-17 18:39 | 13.02744 | -60.83275 | 5963 ft | 157 kts | 352° |
| 2026-04-17 18:39 | 13.03807 | -60.83510 | 5964 ft | 157 kts | 352° |
| 2026-04-17 18:40 | 13.04879 | -60.83714 | 5961 ft | 156 kts | 353° |
| 2026-04-17 18:40 | 13.05946 | -60.83941 | 5961 ft | 157 kts | 352° |
| 2026-04-17 18:40 | 13.07018 | -60.84134 | 5961 ft | 157 kts | 353° |
| 2026-04-17 18:40 | 13.08095 | -60.84332 | 5961 ft | 157 kts | 353° |
| 2026-04-17 18:41 | 13.09172 | -60.84530 | 5964 ft | 157 kts | 354° |
| 2026-04-17 18:41 | 13.10246 | -60.84734 | 5967 ft | 157 kts | 352° |
| 2026-04-17 18:41 | 13.11317 | -60.84957 | 5965 ft | 157 kts | 354° |
| 2026-04-17 18:41 | 13.12394 | -60.85157 | 5966 ft | 158 kts | 352° |
| 2026-04-17 18:42 | 13.13470 | -60.85387 | 5967 ft | 158 kts | 351° |
| 2026-04-17 18:42 | 13.14543 | -60.85643 | 5966 ft | 158 kts | 351° |
| 2026-04-17 18:42 | 13.15617 | -60.85892 | 5966 ft | 158 kts | 352° |
| 2026-04-17 18:42 | 13.16689 | -60.86130 | 5966 ft | 157 kts | 352° |
| 2026-04-17 18:43 | 13.17748 | -60.86337 | 5965 ft | 157 kts | 352° |
| 2026-04-17 18:43 | 13.18823 | -60.86564 | 5966 ft | 158 kts | 351° |
| 2026-04-17 18:43 | 13.19894 | -60.86807 | 5967 ft | 158 kts | 353° |
| 2026-04-17 18:43 | 13.20971 | -60.87025 | 5966 ft | 157 kts | 353° |
| 2026-04-17 18:44 | 13.22048 | -60.87235 | 5967 ft | 157 kts | 352° |
| 2026-04-17 18:44 | 13.23125 | -60.87442 | 5966 ft | 157 kts | 353° |
| 2026-04-17 18:44 | 13.24202 | -60.87644 | 5978 ft | 157 kts | 353° |
| 2026-04-17 18:44 | 13.25276 | -60.87871 | 5977 ft | 158 kts | 353° |
| 2026-04-17 18:45 | 13.26356 | -60.88083 | 5977 ft | 157 kts | 354° |
| 2026-04-17 18:45 | 13.27436 | -60.88291 | 5977 ft | 157 kts | 353° |
| 2026-04-17 18:45 | 13.28518 | -60.88492 | 5977 ft | 158 kts | 353° |
| 2026-04-17 18:45 | 13.29594 | -60.88712 | 5977 ft | 157 kts | 353° |
| 2026-04-17 18:46 | 13.30669 | -60.88934 | 5975 ft | 158 kts | 353° |
| 2026-04-17 18:46 | 13.31749 | -60.89154 | 5975 ft | 157 kts | 354° |
| 2026-04-17 18:46 | 13.32824 | -60.89362 | 5974 ft | 157 kts | 352° |
| 2026-04-17 18:46 | 13.33881 | -60.89571 | 5974 ft | 157 kts | 352° |
| 2026-04-17 18:47 | 13.34956 | -60.89802 | 5978 ft | 157 kts | 352° |
| 2026-04-17 18:47 | 13.36023 | -60.90061 | 5977 ft | 158 kts | 351° |
| 2026-04-17 18:47 | 13.37097 | -60.90311 | 5983 ft | 157 kts | 352° |
| 2026-04-17 18:47 | 13.38168 | -60.90521 | 5983 ft | 157 kts | 353° |
| 2026-04-17 18:48 | 13.39242 | -60.90733 | 5983 ft | 157 kts | 353° |
| 2026-04-17 18:48 | 13.40312 | -60.90937 | 5983 ft | 156 kts | 353° |
| 2026-04-17 18:48 | 13.41022 | -60.91081 | 5983 ft | 157 kts | 352° |
| 2026-04-17 18:48 | 13.42100 | -60.91301 | 5983 ft | 158 kts | 353° |
| 2026-04-17 18:49 | 13.43179 | -60.91504 | 5983 ft | 158 kts | 354° |
| 2026-04-17 18:49 | 13.44259 | -60.91701 | 5982 ft | 158 kts | 353° |
| 2026-04-17 18:49 | 13.45342 | -60.91921 | 5983 ft | 159 kts | 353° |
| 2026-04-17 18:49 | 13.46764 | -60.92263 | 5982 ft | 159 kts | 351° |
| 2026-04-17 18:50 | 13.47492 | -60.92442 | 5983 ft | 159 kts | 353° |
| 2026-04-17 18:50 | 13.48572 | -60.92674 | 5983 ft | 159 kts | 353° |
| 2026-04-17 18:50 | 13.49653 | -60.92905 | 5983 ft | 158 kts | 354° |
| 2026-04-17 18:50 | 13.50738 | -60.93089 | 5991 ft | 157 kts | 355° |
| 2026-04-17 18:51 | 13.51792 | -60.93300 | 5991 ft | 157 kts | 351° |
| 2026-04-17 18:51 | 13.52863 | -60.93550 | 5991 ft | 158 kts | 354° |
| 2026-04-17 18:51 | 13.53935 | -60.93753 | 5991 ft | 156 kts | 354° |
| 2026-04-17 18:51 | 13.55008 | -60.93934 | 5996 ft | 157 kts | 355° |
| 2026-04-17 18:52 | 13.56087 | -60.94116 | 5998 ft | 157 kts | 355° |
| 2026-04-17 18:52 | 13.57159 | -60.94322 | 5998 ft | 156 kts | 353° |
| 2026-04-17 18:52 | 13.58226 | -60.94569 | 5997 ft | 158 kts | 354° |
| 2026-04-17 18:52 | 13.59302 | -60.94785 | 5998 ft | 158 kts | 354° |
| 2026-04-17 18:53 | 13.60371 | -60.95023 | 5998 ft | 157 kts | 352° |
| 2026-04-17 18:53 | 13.61439 | -60.95262 | 5998 ft | 158 kts | 351° |
| 2026-04-17 18:53 | 13.62509 | -60.95499 | 5999 ft | 157 kts | 353° |
| 2026-04-17 18:53 | 13.63580 | -60.95730 | 5999 ft | 158 kts | 354° |
| 2026-04-17 18:54 | 13.64659 | -60.95933 | 5999 ft | 157 kts | 354° |
| 2026-04-17 18:54 | 13.65740 | -60.96116 | 5999 ft | 157 kts | 354° |
| 2026-04-17 18:54 | 13.66820 | -60.96321 | 6000 ft | 158 kts | 353° |
| 2026-04-17 18:54 | 13.67896 | -60.96572 | 6000 ft | 159 kts | 351° |
| 2026-04-17 18:55 | 13.68972 | -60.96840 | 5999 ft | 160 kts | 352° |
| 2026-04-17 18:55 | 13.70040 | -60.97086 | 5999 ft | 159 kts | 352° |
| 2026-04-17 18:55 | 13.71123 | -60.97311 | 6000 ft | 159 kts | 354° |
| 2026-04-17 18:55 | 13.72210 | -60.97490 | 5999 ft | 158 kts | 355° |
| 2026-04-17 18:56 | 13.73292 | -60.97703 | 6000 ft | 158 kts | 353° |
| 2026-04-17 18:56 | 13.74375 | -60.97934 | 6000 ft | 160 kts | 356° |
| 2026-04-17 18:56 | 13.75473 | -60.98068 | 5999 ft | 158 kts | 359° |
| 2026-04-17 18:56 | 13.76572 | -60.98117 | 6000 ft | 158 kts | 5° |
| 2026-04-17 18:57 | 13.77674 | -60.98123 | 5999 ft | 158 kts | 5° |
| 2026-04-17 18:57 | 13.78775 | -60.98112 | 5999 ft | 158 kts | 7° |
| 2026-04-17 18:57 | 13.79871 | -60.98094 | 6000 ft | 158 kts | 7° |
| 2026-04-17 18:57 | 13.80967 | -60.98094 | 5999 ft | 157 kts | 5° |
| 2026-04-17 18:58 | 13.82058 | -60.98115 | 5981 ft | 158 kts | 4° |
| 2026-04-17 18:58 | 13.83167 | -60.98086 | 5953 ft | 160 kts | 9° |
| 2026-04-17 18:58 | 13.84254 | -60.97893 | 5996 ft | 158 kts | 20° |
| 2026-04-17 18:58 | 13.85265 | -60.97437 | 6001 ft | 160 kts | 37° |
| 2026-04-17 18:59 | 13.86080 | -60.96677 | 6030 ft | 161 kts | 57° |
| 2026-04-17 18:59 | 13.86553 | -60.95643 | 6075 ft | 161 kts | 82° |
| 2026-04-17 18:59 | 13.86528 | -60.94491 | 6102 ft | 163 kts | 109° |
| 2026-04-17 18:59 | 13.85952 | -60.93500 | 6153 ft | 164 kts | 140° |
| 2026-04-17 19:00 | 13.84946 | -60.92979 | 6200 ft | 165 kts | 174° |
| 2026-04-17 19:00 | 13.83825 | -60.93145 | 6244 ft | 166 kts | 210° |
| 2026-04-17 19:00 | 13.83024 | -60.93974 | 6295 ft | 167 kts | 248° |
| 2026-04-17 19:00 | 13.82907 | -60.95139 | 6343 ft | 168 kts | 288° |
| 2026-04-17 19:01 | 13.83554 | -60.96109 | 6395 ft | 168 kts | 328° |
| 2026-04-17 19:01 | 13.84667 | -60.96389 | 6443 ft | 169 kts | 11° |
| 2026-04-17 19:01 | 13.85672 | -60.95809 | 6491 ft | 170 kts | 54° |
| 2026-04-17 19:01 | 13.86002 | -60.94673 | 6540 ft | 170 kts | 99° |
| 2026-04-17 19:02 | 13.85454 | -60.93628 | 6586 ft | 171 kts | 144° |
| 2026-04-17 19:02 | 13.84339 | -60.93301 | 6637 ft | 171 kts | 190° |
| 2026-04-17 19:02 | 13.83338 | -60.93907 | 6687 ft | 172 kts | 237° |
| 2026-04-17 19:02 | 13.83087 | -60.95075 | 6735 ft | 172 kts | 284° |
| 2026-04-17 19:03 | 13.83754 | -60.96057 | 6785 ft | 172 kts | 332° |
| 2026-04-17 19:03 | 13.84909 | -60.96207 | 6832 ft | 173 kts | 20° |
| 2026-04-17 19:03 | 13.85792 | -60.95416 | 6882 ft | 173 kts | 68° |
| 2026-04-17 19:03 | 13.85799 | -60.94215 | 6932 ft | 173 kts | 117° |
| 2026-04-17 19:04 | 13.84923 | -60.93416 | 6981 ft | 174 kts | 166° |
| 2026-04-17 19:04 | 13.83761 | -60.93574 | 7030 ft | 174 kts | 215° |
| 2026-04-17 19:04 | 13.83117 | -60.94586 | 7078 ft | 174 kts | 264° |
| 2026-04-17 19:04 | 13.83448 | -60.95746 | 7127 ft | 174 kts | 314° |
| 2026-04-17 19:05 | 13.84525 | -60.96240 | 7178 ft | 175 kts | 4° |
| 2026-04-17 19:05 | 13.85575 | -60.95727 | 7223 ft | 175 kts | 53° |
| 2026-04-17 19:05 | 13.85880 | -60.94553 | 7272 ft | 175 kts | 103° |
| 2026-04-17 19:05 | 13.85197 | -60.93560 | 7321 ft | 175 kts | 153° |
| 2026-04-17 19:06 | 13.84018 | -60.93465 | 7367 ft | 176 kts | 204° |
| 2026-04-17 19:06 | 13.83195 | -60.94340 | 7416 ft | 176 kts | 254° |
| 2026-04-17 19:06 | 13.83328 | -60.95553 | 7467 ft | 176 kts | 305° |
| 2026-04-17 19:06 | 13.84326 | -60.96214 | 7513 ft | 176 kts | 355° |
| 2026-04-17 19:07 | 13.85458 | -60.95837 | 7563 ft | 176 kts | 46° |
| 2026-04-17 19:07 | 13.85888 | -60.94697 | 7612 ft | 177 kts | 97° |
| 2026-04-17 19:07 | 13.85300 | -60.93634 | 7660 ft | 177 kts | 148° |
| 2026-04-17 19:07 | 13.84123 | -60.93432 | 7711 ft | 177 kts | 199° |
| 2026-04-17 19:08 | 13.83229 | -60.94245 | 7761 ft | 177 kts | 250° |
| 2026-04-17 19:08 | 13.83281 | -60.95473 | 7805 ft | 177 kts | 301° |
| 2026-04-17 19:08 | 13.84227 | -60.96200 | 7852 ft | 178 kts | 351° |
| 2026-04-17 19:08 | 13.85388 | -60.95904 | 7901 ft | 178 kts | 42° |
| 2026-04-17 19:09 | 13.85894 | -60.94785 | 7951 ft | 178 kts | 94° |
| 2026-04-17 19:09 | 13.85365 | -60.93680 | 7997 ft | 178 kts | 144° |
| 2026-04-17 19:09 | 13.84193 | -60.93413 | 8043 ft | 178 kts | 196° |
| 2026-04-17 19:09 | 13.83257 | -60.94186 | 8096 ft | 179 kts | 247° |
| 2026-04-17 19:10 | 13.83259 | -60.95422 | 8142 ft | 179 kts | 298° |
| 2026-04-17 19:10 | 13.84202 | -60.96192 | 8190 ft | 179 kts | 350° |
| 2026-04-17 19:10 | 13.85375 | -60.95913 | 8232 ft | 179 kts | 41° |
| 2026-04-17 19:10 | 13.85894 | -60.94794 | 8285 ft | 179 kts | 93° |
| 2026-04-17 19:11 | 13.85363 | -60.93680 | 8327 ft | 179 kts | 144° |
| 2026-04-17 19:11 | 13.84183 | -60.93415 | 8376 ft | 180 kts | 196° |
| 2026-04-17 19:11 | 13.83337 | -60.94037 | 8392 ft | 180 kts | 240° |
| 2026-04-17 19:11 | 13.83197 | -60.95275 | 8441 ft | 180 kts | 292° |
| 2026-04-17 19:12 | 13.84053 | -60.96154 | 8493 ft | 180 kts | 343° |
| 2026-04-17 19:12 | 13.85258 | -60.96008 | 8541 ft | 180 kts | 35° |
| 2026-04-17 19:12 | 13.85892 | -60.94945 | 8589 ft | 181 kts | 87° |
| 2026-04-17 19:12 | 13.85473 | -60.93773 | 8636 ft | 181 kts | 139° |
| 2026-04-17 19:13 | 13.84333 | -60.93385 | 8705 ft | 181 kts | 190° |